메인 페이지
METAR-TAF:

METAR-TAF

공항 :

시바스, 터키

위도: 39-45N, 경도: 037-01E, 고도: 1285m

현재 날씨관측

예보는 28분 전, 08:50시(UTC)에 발표되었습니다.
3kt북북동풍과 동남동풍을 오가는
온도 5°C
습도 87%
기압 1010 hPa
시정 10km 이상
고도 1000ft 상공 구름 보통
고도 3000ft 상공 구름 많음
고도 9000ft 상공 구름 많음
약한비

METAR: LTAR 010850Z 08003KT 020V120 9999 -RA SCT010 BKN030 BKN090 05/03 Q1010

시각: 12:18 (09:18 UTC)

예보

예보는 1 시간 38분 전, 07:40시(UTC)에 발표되었습니다.
예보 대상 시간: 01일 09시부터 01일 18시까지 (UTC)
9kt
시정: 8000m
고도 500ft 상공 구름 보통
고도 3000ft 상공 구름 많음
고도 8000ft 상공 구름 많음
약한소나기
일시적
01일 10시부터 01일 14시까지 (UTC)
북북동15kt, 순간 최대 풍속 25kt
시정: 4000m
고도 2500ft 상공 구름 조금, 적란운.
고도 2500ft 상공 구름 많음
고도 8000ft 상공 구름 많음
소나기

TAF: LTAR 010740Z 0109/0118 10009KT 8000 -SHRA SCT005 BKN030 BKN080 TEMPO 0110/0114 02015G25KT 4000 SHRA FEW025CB BKN025 BKN080

4,000개 이상의 공항 관측 자료 및 예보 (METAR 및 TAF 보고).

지도상에서 검색 가능한 기상관측소가 노란 점과 빨간 점으로 표시되어 있습니다.

기상관측소 명을 보려면 표시 위로 마우스를 이동하세요.

날씨 관측과 예보를 보려면 클릭하세요.

지도 변경 : 확대하려면 엑스 표시가 있는 녹색 버튼, 축소하려면 빼기 표시가 있는 녹색 버튼, 다음 페이지의 지도를 보려면 녹색 화살표를 클릭하세요.


METAR-TAF: